Grand Princess — ZCBU5 — position and weather

sailwx.info

Track history (hours):
 
Tides and Currents Weather Stations Pressure Air Temp Water Temp Dewpoint Dewpoint Depression Visibility Wind Speed Wind Dir Waves Ship Positions

Grand Princess

Operator: Princess Cruises

Last reported at 2017-Nov-17 18:00 UTC. Time now 2017-Nov-23 09:43 UTC.
Position N 23°12' W 149°12'.

Length 289.5 m; beam 36 m; draft 8.5 m.

Type: Passenger vessel. MMSI: 310327000.

Wind from 120 at 10 knots

Barometer 1015.4 mb
Air temperature 24.0 ° C
Visibility: greater than 10.8 NM
Dewpoint 15.8 ° C
Water temperature 25.0 ° C

Date/timePositionNaut miles runAvg speedWind from/ knotsBaromVisibWave heightAir tempDewpointWater temp
2017-Nov-17 18:00N 23°12' W 149°12'14270.9 120 / 101015.410.8 24.015.825.0
2017-Nov-17 16:00N 25°30' W 148°36'34715.8 100 / 71014.810.8 22.516.825.0
2017-Nov-16 18:00N 27°06' W 142°24'25819.9 350 / 111018.010.8 21.016.022.0
2017-Nov-16 05:00N 29°18' W 138°12'2423.9 330 / 501012.010.8 18.817.522.0
2017-Nov-16 04:00N 29°36' W 137°54'19017.3 330 / 401008.1 5.4 20.019.222.0
2017-Nov-15 17:00N 31°18' W 134°48'66918.7 190 / 251013.510.8 20.419.020.0
2017-Nov-14 05:11N 37°22' W 123°28'317.9
2017-Nov-14 05:00N 37°24' W 123°25'816.8
2017-Nov-14 04:30N 37°28' W 123°16'611.5
2017-Nov-14 04:00N 37°31' W 123°10'510.9
2017-Nov-14 03:30N 37°34' W 123°04'510.3
2017-Nov-14 03:00N 37°37' W 122°59'510.1
2017-Nov-14 02:30N 37°40' W 122°53'510.2
2017-Nov-14 02:00N 37°43' W 122°48'611.2
2017-Nov-14 01:30N 37°46' W 122°42'611.0
2017-Nov-14 01:00N 37°47' W 122°35'714.4
2017-Nov-14 00:30N 37°49' W 122°27'2 3.9
2017-Nov-13 23:56N 37°48' W 122°24'0 0.0
2017-Nov-13 23:23N 37°48' W 122°24'0 0.0
2017-Nov-13 22:59N 37°48' W 122°24'0 0.0
2017-Nov-13 22:29N 37°48' W 122°24'0 0.0
2017-Nov-13 21:59N 37°48' W 122°24'147 7.4
2017-Nov-13 02:01N 35°26' W 121°39'816.3
2017-Nov-13 01:30N 35°19' W 121°35'816.6
2017-Nov-13 01:01N 35°11' W 121°30'917.0
2017-Nov-13 00:30N 35°04' W 121°25'816.8
2017-Nov-13 00:00N 34°56' W 121°21'816.8
2017-Nov-12 23:31N 34°49' W 121°16'816.7
2017-Nov-12 23:01N 34°42' W 121°11'816.0
2017-Nov-12 22:31N 34°34' W 121°07'815.8
2017-Nov-12 22:01N 34°27' W 121°02'815.7
2017-Nov-12 21:31N 34°20' W 120°58'815.8
2017-Nov-12 21:00N 34°13' W 120°54'816.1
2017-Nov-12 20:30N 34°06' W 120°49'815.9
2017-Nov-12 20:00N 33°59' W 120°45'815.6
2017-Nov-12 19:30N 33°53' W 120°39'815.5
2017-Nov-12 18:58N 33°47' W 120°32'715.2
2017-Nov-12 18:30N 33°41' W 120°27'714.4
2017-Nov-12 18:00N 33°36' W 120°21'714.6
2017-Nov-12 17:30N 33°30' W 120°15'714.3
2017-Nov-12 17:00N 33°25' W 120°10'714.2
2017-Nov-12 16:31N 33°20' W 120°04'714.2
2017-Nov-12 16:00N 33°15' W 119°58'714.6
2017-Nov-12 15:31N 33°09' W 119°52'815.8
2017-Nov-12 15:01N 33°04' W 119°45'815.9
2017-Nov-12 14:31N 32°59' W 119°38'816.0
2017-Nov-12 14:01N 32°54' W 119°31'816.2
2017-Nov-12 13:31N 32°48' W 119°24'816.2
2017-Nov-12 12:59N 32°43' W 119°16'816.0
2017-Nov-12 12:31N 32°38' W 119°09'816.3
2017-Nov-12 12:00N 32°35' W 118°60'5395.8
2017-Nov-12 12:00N 32°36' W 119°06'1327.3 290 / 231016.310.8 16.513.917.0
2017-Nov-12 11:30N 32°32' W 118°51'816.5
2017-Nov-12 11:01N 32°30' W 118°42'1016.6
2017-Nov-12 10:26N 32°26' W 118°31'716.6
2017-Nov-12 10:01N 32°24' W 118°23'916.6
2017-Nov-12 09:29N 32°21' W 118°14'816.9
2017-Nov-12 09:00N 32°18' W 118°05'917.1
2017-Nov-12 08:30N 32°15' W 117°55'916.9
2017-Nov-12 07:58N 32°12' W 117°45'816.8
2017-Nov-12 07:29N 32°09' W 117°36'816.8
2017-Nov-12 07:00N 32°06' W 117°27'1016.8
2017-Nov-12 06:26N 32°03' W 117°17'816.9
2017-Nov-12 05:58N 31°60' W 117°08'816.6
2017-Nov-12 05:30N 31°57' W 116°60'816.8
2017-Nov-12 05:00N 31°54' W 116°50'816.9
2017-Nov-12 04:30N 31°50' W 116°41'17 2.4
2017-Nov-11 21:27N 31°42' W 116°59'5418.0
2017-Nov-11 18:28N 31°21' W 117°57'101220.5
2017-Nov-09 17:00N 26°30' W 136°24'   010 / 61019.510.8 21.017.823.0
Track history (hours):
 
Tides and Currents Weather Stations Pressure Air Temp Water Temp Dewpoint Dewpoint Depression Visibility Wind Speed Wind Dir Waves Ship Positions

Grand Princess

Operator: Princess Cruises

Last reported at 2017-Nov-17 18:00 UTC. Time now 2017-Nov-23 09:43 UTC.
Position N 23°12' W 149°12'.

Length 289.5 m; beam 36 m; draft 8.5 m.

Type: Passenger vessel. MMSI: 310327000.

Wind from 120 at 10 knots

Barometer 1015.4 mb
Air temperature 24.0 ° C
Visibility: greater than 10.8 NM
Dewpoint 15.8 ° C
Water temperature 25.0 ° C

Date/timePositionNaut miles runAvg speedWind from/ knotsBaromVisibWave heightAir tempDewpointWater temp
2017-Nov-17 18:00N 23°12' W 149°12'14270.9 120 / 101015.410.8 24.015.825.0
2017-Nov-17 16:00N 25°30' W 148°36'34715.8 100 / 71014.810.8 22.516.825.0
2017-Nov-16 18:00N 27°06' W 142°24'25819.9 350 / 111018.010.8 21.016.022.0
2017-Nov-16 05:00N 29°18' W 138°12'2423.9 330 / 501012.010.8 18.817.522.0
2017-Nov-16 04:00N 29°36' W 137°54'19017.3 330 / 401008.1 5.4 20.019.222.0
2017-Nov-15 17:00N 31°18' W 134°48'66918.7 190 / 251013.510.8 20.419.020.0
2017-Nov-14 05:11N 37°22' W 123°28'317.9
2017-Nov-14 05:00N 37°24' W 123°25'816.8
2017-Nov-14 04:30N 37°28' W 123°16'611.5
2017-Nov-14 04:00N 37°31' W 123°10'510.9
2017-Nov-14 03:30N 37°34' W 123°04'510.3
2017-Nov-14 03:00N 37°37' W 122°59'510.1
2017-Nov-14 02:30N 37°40' W 122°53'510.2
2017-Nov-14 02:00N 37°43' W 122°48'611.2
2017-Nov-14 01:30N 37°46' W 122°42'611.0
2017-Nov-14 01:00N 37°47' W 122°35'714.4
2017-Nov-14 00:30N 37°49' W 122°27'2 3.9
2017-Nov-13 23:56N 37°48' W 122°24'0 0.0
2017-Nov-13 23:23N 37°48' W 122°24'0 0.0
2017-Nov-13 22:59N 37°48' W 122°24'0 0.0
2017-Nov-13 22:29N 37°48' W 122°24'0 0.0
2017-Nov-13 21:59N 37°48' W 122°24'147 7.4
2017-Nov-13 02:01N 35°26' W 121°39'816.3
2017-Nov-13 01:30N 35°19' W 121°35'816.6
2017-Nov-13 01:01N 35°11' W 121°30'917.0
2017-Nov-13 00:30N 35°04' W 121°25'816.8
2017-Nov-13 00:00N 34°56' W 121°21'816.8
2017-Nov-12 23:31N 34°49' W 121°16'816.7
2017-Nov-12 23:01N 34°42' W 121°11'816.0
2017-Nov-12 22:31N 34°34' W 121°07'815.8
2017-Nov-12 22:01N 34°27' W 121°02'815.7
2017-Nov-12 21:31N 34°20' W 120°58'815.8
2017-Nov-12 21:00N 34°13' W 120°54'816.1
2017-Nov-12 20:30N 34°06' W 120°49'815.9
2017-Nov-12 20:00N 33°59' W 120°45'815.6
2017-Nov-12 19:30N 33°53' W 120°39'815.5
2017-Nov-12 18:58N 33°47' W 120°32'715.2
2017-Nov-12 18:30N 33°41' W 120°27'714.4
2017-Nov-12 18:00N 33°36' W 120°21'714.6
2017-Nov-12 17:30N 33°30' W 120°15'714.3
2017-Nov-12 17:00N 33°25' W 120°10'714.2
2017-Nov-12 16:31N 33°20' W 120°04'714.2
2017-Nov-12 16:00N 33°15' W 119°58'714.6
2017-Nov-12 15:31N 33°09' W 119°52'815.8
2017-Nov-12 15:01N 33°04' W 119°45'815.9
2017-Nov-12 14:31N 32°59' W 119°38'816.0
2017-Nov-12 14:01N 32°54' W 119°31'816.2
2017-Nov-12 13:31N 32°48' W 119°24'816.2
2017-Nov-12 12:59N 32°43' W 119°16'816.0
2017-Nov-12 12:31N 32°38' W 119°09'816.3
2017-Nov-12 12:00N 32°35' W 118°60'5395.8
2017-Nov-12 12:00N 32°36' W 119°06'1327.3 290 / 231016.310.8 16.513.917.0
2017-Nov-12 11:30N 32°32' W 118°51'816.5
2017-Nov-12 11:01N 32°30' W 118°42'1016.6
2017-Nov-12 10:26N 32°26' W 118°31'716.6
2017-Nov-12 10:01N 32°24' W 118°23'916.6
2017-Nov-12 09:29N 32°21' W 118°14'816.9
2017-Nov-12 09:00N 32°18' W 118°05'917.1
2017-Nov-12 08:30N 32°15' W 117°55'916.9
2017-Nov-12 07:58N 32°12' W 117°45'816.8
2017-Nov-12 07:29N 32°09' W 117°36'816.8
2017-Nov-12 07:00N 32°06' W 117°27'1016.8
2017-Nov-12 06:26N 32°03' W 117°17'816.9
2017-Nov-12 05:58N 31°60' W 117°08'816.6
2017-Nov-12 05:30N 31°57' W 116°60'816.8
2017-Nov-12 05:00N 31°54' W 116°50'816.9
2017-Nov-12 04:30N 31°50' W 116°41'17 2.4
2017-Nov-11 21:27N 31°42' W 116°59'5418.0
2017-Nov-11 18:28N 31°21' W 117°57'101220.5
2017-Nov-09 17:00N 26°30' W 136°24'   010 / 61019.510.8 21.017.823.0

Dump ship's entire track history